Aviation

FTHA31 MTPP 201700
TAF MTPP 201700Z 2018/2118 11015KT 9999 FEW026CB SCT030
PROB30 TEMPO 2021/2104 20010G20KT 4500 TSRA SCT022CB BKN030
BECMG 2108/2112 09008KT 7000 NSW SCT020 BKN050=
BECMG 2113/2116 18012G22KT